Tuscola, Illinois
Current Conditions -  °F | °C
As of 2:53 PM on Tuesday 27 Jan 2015 (Local Time) from KCMI Reporting Station
Haze Haze  
Wind Chill: 23°   Ceiling: 1800
Heat Index: 31°   Visibility: 6mi
Dew Point: 26°   Wind: 8mph
Humidity: 82%   Direction: 20°NNE
Pressure: 30.17"   Gusts: NA
Location:  39.8°N, 88.28°W
Report Text: KCMI 272053Z 02007KT 6SM HZ BKN018 OVC047 M01/M03 A3017 RMK AO2 SLP226 T10061033 53011
Loading
Personal Weather Stations






























Interactive Weather Map New forecast layout! Learn more

10-Day Weather Forecast

Advertisements
Track Severe Weather on mobile